Terminal Aerodrome Forecast
Issued by NWS Louisville, KY

Home | Current Version | Previous Version | Text Only | Print | Product List | Glossary On
Versions: 1 2 3 4 5 6 7 8 9 10 11 12 13
000
FTUS43 KLMK 251700 RRA
TAFBWG
TAF
KBWG 251746Z 2518/2618 19011G18KT P6SM -RA SCT040 OVC090
      TEMPO 2518/2520 3SM SHRA BKN040
     FM252300 17009KT P6SM BKN030
     FM260100 16008KT P6SM BKN025=

USA.gov is the U.S. government's official web portal to all federal, state and local government web resources and services.